Terminal Aerodrome Forecast
Issued by NWS Austin/San Antonio, TX

Home | Current Version | Previous Version | Text Only | Print | Product List | Glossary On
Versions: 1 2 3 4 5 6 7 8 9 10 11 12 13 14 15
000
FTUS44 KEWX 050540
TAFSAT
TAF
KSAT 050540Z 0506/0612 15011KT P6SM SCT060 SCT250
     FM050800 17008KT P6SM OVC015
     FM051400 16012KT P6SM SCT040
     FM060900 17008KT P6SM OVC015=

USA.gov is the U.S. government's official web portal to all federal, state and local government web resources and services.